Time;durP1;ratioP1;P1;durP2;ratioP2;P2;SDS_P1;SDS_P2;PMS_P1;PMS_P2;Temp;Humidity;BMP_temperature;BMP_pressure;BME280_temperature;BME280_humidity;BME280_pressure;Samples;Min_cycle;Max_cycle;Signal;HPM_P1;HPM_P2
2022/04/25 00:00:04;;;;;;;15.93;12.18;;;;;;;7.34;88.89;100374.45;1760181;81;21371;-61
2022/04/25 00:03:12;;;;;;;16.42;11.30;;;;;;;7.28;88.76;100375.07;1759471;81;21217;-61
2022/04/25 00:06:17;;;;;;;18.25;12.28;;;;;;;7.26;88.87;100380.34;1762586;81;21193;-61
2022/04/25 00:09:24;;;;;;;12.70;10.32;;;;;;;7.24;88.86;100376.91;1759541;81;21239;-60
2022/04/25 00:12:30;;;;;;;19.23;12.60;;;;;;;7.22;88.88;100378.92;1742830;81;21189;-60
2022/04/25 00:15:36;;;;;;;17.77;12.15;;;;;;;7.19;88.84;100385.54;1760356;81;21200;-60
2022/04/25 00:18:38;;;;;;;15.20;11.63;;;;;;;7.17;88.91;100383.47;1760189;81;21208;-60
2022/04/25 00:21:45;;;;;;;16.82;10.85;;;;;;;7.11;88.94;100382.73;1759956;81;21184;-60
2022/04/25 00:24:52;;;;;;;12.55;9.73;;;;;;;7.05;88.77;100379.27;1759604;81;21244;-60
2022/04/25 00:27:58;;;;;;;17.62;12.85;;;;;;;7.07;89.19;100385.91;1759970;81;21337;-60
2022/04/25 00:31:04;;;;;;;15.05;11.15;;;;;;;7.11;89.41;100390.89;1759681;81;21173;-60
2022/04/25 00:34:11;;;;;;;16.10;10.03;;;;;;;7.11;89.20;100377.78;1759835;81;21251;-60
2022/04/25 00:37:17;;;;;;;11.65;9.83;;;;;;;7.12;89.28;100380.34;1759526;81;21510;-61
2022/04/25 00:40:29;;;;;;;14.00;11.35;;;;;;;7.12;89.23;100366.73;1759738;81;21200;-60
2022/04/25 00:43:34;;;;;;;16.73;11.10;;;;;;;7.11;89.16;100370.48;1744502;81;21224;-61
2022/04/25 00:46:39;;;;;;;14.70;11.43;;;;;;;7.06;88.86;100376.02;1759668;81;21228;-61
2022/04/25 00:49:49;;;;;;;12.53;9.95;;;;;;;7.02;88.84;100373.27;1750128;81;21197;-61
2022/04/25 00:52:55;;;;;;;19.20;13.83;;;;;;;6.94;88.71;100377.27;1764837;81;21224;-61
2022/04/25 00:56:01;;;;;;;21.90;14.75;;;;;;;6.90;88.83;100379.92;1764864;81;21176;-61
2022/04/25 00:59:07;;;;;;;20.40;12.23;;;;;;;6.89;89.08;100373.64;1764923;81;21208;-61
2022/04/25 01:02:16;;;;;;;17.30;11.18;;;;;;;6.86;89.22;100373.95;1765140;81;21724;-61
2022/04/25 01:05:24;;;;;;;17.05;11.05;;;;;;;6.87;89.53;100381.59;1750571;81;21177;-61
2022/04/25 01:08:34;;;;;;;20.45;14.00;;;;;;;6.92;89.91;100385.58;1765312;81;21283;-61
2022/04/25 01:11:39;;;;;;;20.05;15.00;;;;;;;6.96;90.04;100383.41;1765062;81;21181;-61
2022/04/25 01:14:45;;;;;;;18.32;13.13;;;;;;;6.98;89.98;100389.04;1765173;80;21181;-60
2022/04/25 01:17:53;;;;;;;17.85;12.18;;;;;;;6.96;89.76;100391.05;1764797;81;21232;-60
2022/04/25 01:21:03;;;;;;;22.93;12.47;;;;;;;6.94;89.54;100389.01;1769535;81;21228;-59
2022/04/25 01:27:35;;;;;;;15.38;11.73;;;;;;;6.96;89.87;100385.61;1764816;81;21311;-61
2022/04/25 01:30:41;;;;;;;16.87;11.60;;;;;;;6.98;89.96;100380.01;1765106;81;21725;-60
2022/04/25 01:33:47;;;;;;;17.85;11.48;;;;;;;7.00;90.16;100376.64;1765052;81;21224;-60
2022/04/25 01:36:54;;;;;;;13.55;11.30;;;;;;;6.99;90.16;100375.77;1765299;81;21231;-60
2022/04/25 01:40:01;;;;;;;15.32;11.40;;;;;;;7.01;90.24;100373.77;1765405;81;21197;-61
2022/04/25 01:43:07;;;;;;;18.62;11.88;;;;;;;7.00;90.12;100374.78;1764983;81;21256;-60
2022/04/25 01:46:13;;;;;;;16.73;12.28;;;;;;;6.99;90.37;100375.77;1764822;81;21181;-60
2022/04/25 01:49:19;;;;;;;14.45;10.88;;;;;;;7.00;90.53;100374.78;1759350;81;21185;-59
2022/04/25 01:52:37;;;;;;;15.50;10.72;;;;;;;6.99;90.55;100375.77;1759771;81;21216;-60
2022/04/25 01:55:43;;;;;;;17.12;11.00;;;;;;;6.98;90.33;100373.20;1741842;81;21204;-60
2022/04/25 01:58:49;;;;;;;13.48;11.35;;;;;;;6.95;90.01;100363.99;1759464;81;21233;-60
2022/04/25 02:01:55;;;;;;;17.50;11.63;;;;;;;6.93;90.05;100363.31;1761075;81;21205;-60
2022/04/25 02:05:03;;;;;;;15.95;11.95;;;;;;;6.95;90.10;100366.72;1760750;81;21193;-61
2022/04/25 02:08:09;;;;;;;18.70;13.25;;;;;;;6.92;89.98;100370.61;1759423;81;21196;-60
2022/04/25 02:11:20;;;;;;;17.87;11.73;;;;;;;6.88;89.67;100366.99;1760249;81;21256;-60
2022/04/25 02:14:28;;;;;;;18.50;12.65;;;;;;;6.83;89.53;100369.31;1741921;81;21173;-60
2022/04/25 02:17:35;;;;;;;14.63;11.65;;;;;;;6.79;89.53;100380.13;1760031;81;21359;-61
2022/04/25 02:20:42;;;;;;;13.48;10.85;;;;;;;6.76;89.55;100369.05;1759860;81;21237;-60
2022/04/25 02:23:47;;;;;;;13.43;10.40;;;;;;;6.75;89.49;100366.49;1759756;81;21276;-60
2022/04/25 02:26:54;;;;;;;16.80;11.40;;;;;;;6.71;89.55;100360.98;1759583;81;21177;-59
2022/04/25 02:30:00;;;;;;;13.50;10.93;;;;;;;6.69;89.71;100355.70;1759604;81;21177;-60
2022/04/25 02:33:09;;;;;;;14.40;10.90;;;;;;;6.65;89.87;100351.58;1759580;81;21251;-61
2022/04/25 02:36:14;;;;;;;20.20;9.88;;;;;;;6.67;90.19;100356.38;1759798;81;21169;-60
2022/04/25 02:39:22;;;;;;;16.90;9.58;;;;;;;6.71;90.32;100365.06;1759561;81;21256;-60
2022/04/25 02:42:28;;;;;;;28.40;9.80;;;;;;;6.72;90.62;100358.64;1759954;81;21165;-61
2022/04/25 02:45:35;;;;;;;17.02;8.63;;;;;;;6.72;90.81;100355.92;1760269;81;21255;-60
2022/04/25 02:48:42;;;;;;;13.98;8.43;;;;;;;6.70;90.87;100360.16;1759422;81;21236;-61
2022/04/25 02:51:47;;;;;;;10.38;9.25;;;;;;;6.66;90.84;100361.45;1734684;81;21223;-61
2022/04/25 02:54:53;;;;;;;12.68;10.13;;;;;;;6.58;90.69;100358.63;1713526;82;21172;-61
2022/04/25 02:57:59;;;;;;;13.72;9.48;;;;;;;6.56;90.98;100369.31;1734316;82;21195;-61
2022/04/25 03:01:04;;;;;;;11.22;9.95;;;;;;;6.58;91.33;100379.02;1734210;82;21199;-61
2022/04/25 03:04:06;;;;;;;28.30;21.30;;;;;;;6.59;91.29;100384.83;1734323;82;21238;-61
2022/04/25 03:07:07;;;;;;;12.95;10.65;;;;;;;6.61;91.36;100383.32;1734495;82;21203;-61
2022/04/25 03:10:14;;;;;;;12.28;9.78;;;;;;;6.65;91.27;100386.08;1734430;82;21188;-61
2022/04/25 03:13:24;;;;;;;11.08;9.43;;;;;;;6.69;91.42;100397.86;1717697;82;21168;-61
2022/04/25 03:16:32;;;;;;;11.75;9.35;;;;;;;6.75;91.44;100392.33;1734417;82;21183;-61
2022/04/25 03:19:39;;;;;;;15.00;10.50;;;;;;;6.79;91.46;100391.88;1734473;82;21188;-60
2022/04/25 03:22:46;;;;;;;12.20;10.25;;;;;;;6.90;91.67;100386.72;1734439;82;21196;-60
2022/04/25 03:25:52;;;;;;;12.13;10.20;;;;;;;6.99;91.81;100389.91;1734694;82;21208;-60
2022/04/25 03:28:58;;;;;;;12.25;9.95;;;;;;;7.04;91.70;100377.53;1734325;82;21184;-62
2022/04/25 03:32:05;;;;;;;12.13;9.08;;;;;;;7.13;91.78;100379.36;1734282;82;21183;-60
2022/04/25 03:35:14;;;;;;;12.50;9.10;;;;;;;7.24;91.78;100391.38;1755872;81;21172;-61
2022/04/25 03:38:22;;;;;;;14.98;9.53;;;;;;;7.32;91.67;100386.02;1767552;80;21224;-61
2022/04/25 03:41:31;;;;;;;15.35;9.78;;;;;;;7.40;91.49;100386.07;1738336;80;21224;-61
2022/04/25 03:44:37;;;;;;;12.15;9.68;;;;;;;7.50;91.67;100380.05;1731567;82;21240;-60
2022/04/25 03:47:45;;;;;;;17.70;10.00;;;;;;;7.61;91.69;100383.89;1717618;82;21183;-61
2022/04/25 03:50:51;;;;;;;14.07;11.40;;;;;;;7.70;91.70;100376.66;1731570;82;21180;-60
2022/04/25 03:53:56;;;;;;;14.70;11.95;;;;;;;7.76;91.62;100379.23;1701967;83;21738;-60
2022/04/25 03:57:12;;;;;;;17.80;12.55;;;;;;;7.83;91.91;100386.65;1701889;84;21201;-59
2022/04/25 04:00:19;;;;;;;21.00;13.83;;;;;;;7.98;92.23;100384.18;1701861;84;21250;-59
2022/04/25 04:03:25;;;;;;;19.27;14.00;;;;;;;8.13;92.46;100390.78;1702038;83;21217;-60
2022/04/25 04:06:32;;;;;;;18.87;12.37;;;;;;;8.28;92.57;100390.55;1704026;83;21209;-59
2022/04/25 04:09:49;;;;;;;17.17;12.93;;;;;;;8.42;92.68;100384.52;1702721;83;21197;-61
2022/04/25 04:12:55;;;;;;;16.75;13.32;;;;;;;8.56;92.80;100386.64;1702527;83;21220;-60
2022/04/25 04:16:03;;;;;;;17.37;13.50;;;;;;;8.70;92.85;100386.02;1702788;83;21363;-61
2022/04/25 04:19:10;;;;;;;52.80;43.45;;;;;;;8.83;93.08;100391.89;1703017;83;21367;-61
2022/04/25 04:22:16;;;;;;;40.25;33.00;;;;;;;8.98;93.33;100386.13;1703737;83;21225;-61
2022/04/25 04:25:22;;;;;;;22.32;16.48;;;;;;;9.16;93.66;100375.95;1703238;83;21745;-60
2022/04/25 04:28:29;;;;;;;24.95;15.15;;;;;;;9.35;94.03;100367.45;1726325;82;21192;-61
2022/04/25 04:31:35;;;;;;;18.37;13.13;;;;;;;9.53;94.33;100379.61;1732703;83;21212;-61
2022/04/25 04:34:43;;;;;;;21.20;13.32;;;;;;;9.70;94.43;100382.19;1733572;82;21228;-61
2022/04/25 04:37:49;;;;;;;22.62;13.50;;;;;;;9.87;94.48;100386.62;1733190;82;21240;-61
2022/04/25 04:40:55;;;;;;;20.05;13.62;;;;;;;10.03;94.59;100385.25;1734425;82;21212;-61
2022/04/25 04:44:02;;;;;;;26.00;15.85;;;;;;;10.21;94.65;100383.19;1733155;82;21260;-60
2022/04/25 04:47:09;;;;;;;26.40;18.10;;;;;;;10.38;94.65;100388.12;1703474;82;21240;-61
2022/04/25 04:50:19;;;;;;;36.80;21.40;;;;;;;10.56;94.65;100392.84;1686362;83;21272;-60
2022/04/25 04:53:25;;;;;;;24.30;15.35;;;;;;;10.70;94.40;100388.04;1730540;78;21265;-60
2022/04/25 04:56:32;;;;;;;21.68;14.73;;;;;;;10.88;94.26;100381.79;1790401;79;21709;-60
2022/04/25 04:59:39;;;;;;;21.07;14.00;;;;;;;11.06;94.23;100384.27;1783421;80;21674;-60
2022/04/25 05:02:47;;;;;;;24.65;17.17;;;;;;;11.24;94.21;100378.86;1792901;79;21185;-61
2022/04/25 05:05:56;;;;;;;27.67;17.87;;;;;;;11.42;94.10;100379.95;1793927;79;21240;-61
2022/04/25 05:09:05;;;;;;;29.95;20.65;;;;;;;11.61;94.10;100370.74;1793839;79;21157;-59
2022/04/25 05:12:12;;;;;;;29.52;17.67;;;;;;;11.81;93.93;100371.97;1792753;79;21224;-61
2022/04/25 05:15:19;;;;;;;27.20;17.73;;;;;;;11.98;93.51;100367.22;1782687;79;21207;-60
2022/04/25 05:18:27;;;;;;;30.20;18.60;;;;;;;12.16;93.15;100366.37;1792983;79;21282;-60
2022/04/25 05:21:34;;;;;;;31.25;19.82;;;;;;;12.31;92.38;100368.60;1792403;80;21579;-60
2022/04/25 05:24:42;;;;;;;30.23;18.25;;;;;;;12.44;91.70;100370.19;1792513;79;21244;-61
2022/04/25 05:27:55;;;;;;;38.55;20.43;;;;;;;12.59;91.40;100367.45;1752685;81;21211;-62
2022/04/25 05:31:01;;;;;;;36.58;20.80;;;;;;;12.76;90.84;100374.45;1746873;82;21176;-61
2022/04/25 05:34:09;;;;;;;24.98;18.55;;;;;;;12.91;90.16;100381.64;1738434;82;21259;-62
2022/04/25 05:37:16;;;;;;;25.50;17.75;;;;;;;13.06;89.45;100382.52;1737656;82;21697;-62
2022/04/25 05:40:23;;;;;;;22.25;16.00;;;;;;;13.19;88.71;100373.05;1737284;82;21251;-62
2022/04/25 05:43:32;;;;;;;28.20;15.20;;;;;;;13.31;87.80;100370.66;1742361;81;21196;-61
2022/04/25 05:46:45;;;;;;;23.10;15.72;;;;;;;13.39;86.71;100376.91;1724462;82;21701;-60
2022/04/25 05:53:25;;;;;;;27.17;15.10;;;;;;;13.58;85.88;100367.16;1789136;79;21277;-61
2022/04/25 05:56:31;;;;;;;19.32;14.43;;;;;;;13.76;85.48;100365.33;1789902;79;21225;-61
2022/04/25 05:59:40;;;;;;;20.70;15.63;;;;;;;13.89;85.15;100361.34;1758348;81;21200;-61
2022/04/25 06:03:14;;;;;;;22.40;15.78;;;;;;;14.04;84.61;100364.84;1789566;79;21744;-62
2022/04/25 06:06:31;;;;;;;23.95;16.57;;;;;;;14.18;84.19;100363.38;1762144;79;21658;-62
2022/04/25 06:09:38;;;;;;;26.07;16.73;;;;;;;14.35;83.88;100362.61;1757814;81;21216;-62
2022/04/25 06:12:55;;;;;;;23.87;16.90;;;;;;;14.48;83.19;100363.54;1757932;81;21260;-58
2022/04/25 06:16:01;;;;;;;29.15;17.07;;;;;;;14.59;81.89;100364.36;1751722;80;21247;-63
2022/04/25 06:19:10;;;;;;;27.65;16.17;;;;;;;14.71;80.72;100360.52;1734920;82;21192;-61
2022/04/25 06:22:17;;;;;;;26.93;16.73;;;;;;;14.81;79.50;100354.09;1733101;82;21200;-60
2022/04/25 06:25:24;;;;;;;23.25;15.83;;;;;;;14.94;78.86;100355.02;1734010;82;21702;-62
2022/04/25 06:28:30;;;;;;;26.85;15.93;;;;;;;15.09;78.16;100347.99;1762451;79;21235;-61
2022/04/25 06:31:37;;;;;;;24.95;15.08;;;;;;;15.18;76.77;100343.98;1765381;80;21521;-62
2022/04/25 06:34:45;;;;;;;21.52;15.25;;;;;;;15.27;75.82;100338.60;1788951;79;21193;-62
2022/04/25 06:37:56;;;;;;;25.00;14.68;;;;;;;15.30;74.37;100342.88;1787873;80;21217;-62
2022/04/25 06:41:07;;;;;;;23.50;15.98;;;;;;;15.32;73.77;100337.45;1785929;80;21185;-62
2022/04/25 06:44:14;;;;;;;26.75;17.00;;;;;;;15.36;73.58;100333.77;1756272;81;21224;-61
2022/04/25 06:47:23;;;;;;;30.75;15.98;;;;;;;15.42;73.68;100341.23;1723577;82;21189;-60
2022/04/25 06:50:37;;;;;;;28.57;15.32;;;;;;;15.51;73.31;100345.48;1724676;82;21201;-60
2022/04/25 06:53:45;;;;;;;18.95;13.05;;;;;;;15.59;72.75;100342.54;1718360;82;21177;-59
2022/04/25 06:56:52;;;;;;;21.50;13.13;;;;;;;15.67;71.90;100339.59;1750423;81;21818;-59
2022/04/25 06:59:58;;;;;;;20.15;12.25;;;;;;;15.74;71.41;100341.84;1705657;82;21723;-60
2022/04/25 07:03:06;;;;;;;21.10;13.58;;;;;;;15.78;71.36;100345.86;1787761;79;21209;-60
2022/04/25 07:06:13;;;;;;;18.70;12.10;;;;;;;15.84;70.99;100343.12;1788148;79;21267;-58
2022/04/25 07:09:22;;;;;;;18.32;11.08;;;;;;;15.93;71.32;100339.63;1782871;79;21181;-58
2022/04/25 07:12:30;;;;;;;19.42;12.00;;;;;;;16.07;71.09;100329.77;1789186;79;21220;-60
2022/04/25 07:15:38;;;;;;;18.98;11.50;;;;;;;16.17;70.52;100330.16;1758334;81;21193;-60
2022/04/25 07:18:45;;;;;;;20.92;12.55;;;;;;;16.30;70.35;100330.69;1769074;80;21243;-60
2022/04/25 07:28:52;;;;;;;18.12;11.93;;;;;;;16.62;69.66;100310.48;1756572;80;21737;-59
2022/04/25 07:32:02;;;;;;;22.77;13.98;;;;;;;16.73;69.57;100320.86;1734579;82;21338;-58
2022/04/25 07:35:10;;;;;;;25.92;13.85;;;;;;;16.83;69.06;100325.94;1734660;82;21942;-60
2022/04/25 07:38:16;;;;;;;22.40;14.60;;;;;;;16.89;68.51;100327.30;1778150;80;21252;-60
2022/04/25 07:41:27;;;;;;;22.37;14.00;;;;;;;16.94;68.01;100321.98;1788609;79;22013;-59
2022/04/25 07:44:33;;;;;;;26.23;13.83;;;;;;;17.00;67.74;100321.65;1788883;79;21189;-60
2022/04/25 07:47:45;;;;;;;23.75;14.03;;;;;;;17.09;68.20;100316.18;1788577;79;21244;-58
2022/04/25 07:50:51;;;;;;;20.57;13.88;;;;;;;17.22;67.55;100314.74;1782613;80;21157;-58
2022/04/25 07:53:59;;;;;;;25.55;14.38;;;;;;;17.35;67.06;100312.74;1758705;79;21233;-59
2022/04/25 07:57:10;;;;;;;24.70;15.30;;;;;;;17.52;67.40;100318.66;1775390;78;21216;-58
2022/04/25 08:00:17;;;;;;;30.50;15.20;;;;;;;17.68;66.65;100312.55;1783540;78;21753;-59
2022/04/25 08:03:27;;;;;;;23.35;14.70;;;;;;;17.81;65.72;100307.79;1795748;79;21216;-61
2022/04/25 08:06:33;;;;;;;24.40;15.15;;;;;;;17.84;65.04;100310.63;1795930;79;21220;-61
2022/04/25 08:09:40;;;;;;;24.85;14.43;;;;;;;17.92;64.68;100303.44;1794671;79;21216;-60
2022/04/25 08:19:37;;;;;;;20.25;13.18;;;;;;;18.29;64.08;100301.09;1781016;80;21196;-59
2022/04/25 08:22:42;;;;;;;21.95;13.45;;;;;;;18.36;63.20;100291.33;1779671;80;21203;-59
2022/04/25 08:25:49;;;;;;;17.65;11.93;;;;;;;18.43;63.01;100283.81;1749099;81;21192;-60
2022/04/25 08:28:57;;;;;;;21.05;12.93;;;;;;;18.51;61.83;100284.37;1750105;80;21195;-59
2022/04/25 08:32:05;;;;;;;23.98;14.05;;;;;;;18.52;62.10;100288.01;1763856;80;21584;-58
2022/04/25 08:35:13;;;;;;;21.00;14.10;;;;;;;18.56;62.09;100285.92;1766210;79;21227;-60
2022/04/25 08:38:20;;;;;;;26.97;14.98;;;;;;;18.60;62.05;100282.16;1748575;81;21359;-58
2022/04/25 08:41:32;;;;;;;21.00;13.60;;;;;;;18.71;62.04;100275.84;1748000;81;21203;-60
2022/04/25 08:44:41;;;;;;;25.40;13.43;;;;;;;18.77;61.69;100281.33;1749815;81;22020;-59
2022/04/25 08:48:07;;;;;;;21.97;13.72;;;;;;;18.83;61.01;100266.52;1749962;81;21581;-59
2022/04/25 08:51:28;;;;;;;22.07;13.62;;;;;;;18.96;61.52;100265.50;1759144;79;21345;-59
2022/04/25 08:54:40;;;;;;;21.73;12.30;;;;;;;19.13;61.66;100261.86;1778944;79;21270;-57
2022/04/25 08:57:50;;;;;;;20.92;13.03;;;;;;;19.26;61.44;100255.28;1782781;79;21609;-62
2022/04/25 09:00:56;;;;;;;21.12;13.28;;;;;;;19.44;61.38;100252.46;1783707;79;21189;-61
2022/04/25 09:04:02;;;;;;;23.02;13.55;;;;;;;19.61;60.71;100255.42;1777445;80;21287;-62
2022/04/25 09:07:10;;;;;;;17.80;11.97;;;;;;;19.76;60.54;100248.33;1768697;79;21173;-62
2022/04/25 09:10:22;;;;;;;21.52;12.53;;;;;;;19.90;59.71;100239.25;1773594;80;21177;-61
2022/04/25 09:13:32;;;;;;;20.80;13.30;;;;;;;20.01;59.22;100242.58;1782712;79;21189;-63
2022/04/25 09:16:40;;;;;;;21.50;12.03;;;;;;;20.08;59.43;100242.77;1789265;79;21205;-60
2022/04/25 09:19:48;;;;;;;23.07;14.07;;;;;;;20.22;59.46;100235.05;1758618;81;21201;-62
2022/04/25 09:22:55;;;;;;;17.52;11.80;;;;;;;20.41;59.52;100225.48;1788979;79;21766;-62
2022/04/25 09:26:28;;;;;;;17.87;10.98;;;;;;;20.73;59.04;100222.60;1789572;79;21746;-61
2022/04/25 09:29:36;;;;;;;16.25;10.18;;;;;;;20.94;57.02;100228.91;1791748;79;21209;-61
2022/04/25 09:32:42;;;;;;;16.00;9.45;;;;;;;21.06;55.98;100226.13;1787657;79;21263;-61
2022/04/25 09:35:48;;;;;;;18.62;11.43;;;;;;;21.09;55.08;100224.23;1777852;80;21182;-62
2022/04/25 09:38:55;;;;;;;18.57;11.68;;;;;;;21.04;55.08;100221.34;1788699;79;21534;-62
2022/04/25 09:42:01;;;;;;;21.10;11.60;;;;;;;20.90;55.66;100218.52;1789454;80;21224;-62
2022/04/25 09:45:08;;;;;;;19.62;11.35;;;;;;;20.91;55.90;100215.48;1789120;79;21207;-62
2022/04/25 09:48:25;;;;;;;11.70;8.88;;;;;;;21.05;55.91;100220.23;1789245;79;21323;-60
2022/04/25 09:51:34;;;;;;;15.23;9.53;;;;;;;21.25;55.32;100213.13;1789822;79;21209;-61
2022/04/25 09:54:41;;;;;;;11.78;7.25;;;;;;;21.47;54.98;100212.70;1774984;79;21911;-62
2022/04/25 09:57:50;;;;;;;8.93;6.58;;;;;;;21.54;54.27;100206.98;1782327;79;21228;-58
2022/04/25 10:01:00;;;;;;;12.58;6.17;;;;;;;21.63;54.16;100193.78;1791136;80;21268;-59
2022/04/25 10:04:08;;;;;;;10.45;5.55;;;;;;;21.75;53.64;100208.53;1778266;79;21386;-61
2022/04/25 10:07:17;;;;;;;13.13;6.55;;;;;;;21.93;52.54;100200.44;1787406;79;21236;-63
2022/04/25 10:10:24;;;;;;;8.58;5.42;;;;;;;22.09;52.15;100197.66;1779797;78;21698;-60
2022/04/25 10:13:40;;;;;;;8.45;5.15;;;;;;;22.10;51.93;100188.17;1776902;80;21221;-60
2022/04/25 10:16:46;;;;;;;10.18;5.15;;;;;;;22.21;51.45;100194.77;1791492;80;21236;-60
2022/04/25 10:19:55;;;;;;;11.70;5.03;;;;;;;22.20;50.90;100192.52;1753746;81;21202;-59
2022/04/25 10:23:02;;;;;;;9.88;4.50;;;;;;;22.23;51.73;100191.19;1771526;79;21338;-58
2022/04/25 10:26:14;;;;;;;5.92;4.25;;;;;;;22.33;51.20;100180.70;1791740;79;21730;-59
2022/04/25 10:29:36;;;;;;;6.25;4.17;;;;;;;22.53;50.91;100180.49;1763699;80;21201;-59
2022/04/25 10:32:44;;;;;;;7.53;5.10;;;;;;;22.78;50.62;100179.42;1773341;79;21225;-60
2022/04/25 10:35:49;;;;;;;5.78;4.45;;;;;;;22.82;49.43;100183.91;1758998;81;21188;-61
2022/04/25 10:38:58;;;;;;;5.70;4.40;;;;;;;22.67;49.79;100183.19;1759674;81;21276;-61
2022/04/25 10:46:00;;;;;;;8.75;4.37;;;;;;;22.77;50.20;100183.88;1759370;81;21745;-61
2022/04/25 10:49:14;;;;;;;8.90;5.12;;;;;;;22.93;49.14;100174.58;1790939;80;21212;-60
2022/04/25 10:52:52;;;;;;;8.93;4.90;;;;;;;22.99;48.99;100183.30;1791739;79;21330;-60
2022/04/25 10:55:55;;;;;;;19.87;16.45;;;;;;;23.07;48.85;100174.46;1782427;80;21165;-59
2022/04/25 10:59:35;;;;;;;10.53;4.62;;;;;;;23.18;48.15;100172.07;1790701;79;22614;-62
2022/04/25 11:03:23;;;;;;;9.18;4.40;;;;;;;23.16;47.00;100167.29;1800384;79;21797;-61
2022/04/25 11:06:34;;;;;;;8.48;4.53;;;;;;;23.29;47.49;100183.67;1768274;81;21208;-62
2022/04/25 11:09:46;;;;;;;6.90;4.53;;;;;;;23.50;47.69;100169.63;1788424;79;21236;-59
2022/04/25 11:13:07;;;;;;;8.68;4.87;;;;;;;23.67;46.64;100167.27;1791786;79;21180;-60
2022/04/25 11:16:26;;;;;;;9.50;4.85;;;;;;;23.82;45.84;100165.44;1792518;79;22139;-62
2022/04/25 11:19:34;;;;;;;9.48;5.28;;;;;;;23.90;45.88;100156.55;1777353;79;21341;-63
2022/04/25 11:22:53;;;;;;;14.35;8.58;;;;;;;23.99;46.44;100145.17;1777568;79;21246;-62
2022/04/25 11:26:06;;;;;;;12.03;5.33;;;;;;;24.22;45.84;100151.78;1796974;80;21159;-59
2022/04/25 11:29:16;;;;;;;8.58;5.87;;;;;;;24.35;44.03;100144.86;1796478;79;21592;-61
2022/04/25 11:32:36;;;;;;;12.85;4.90;;;;;;;24.06;43.46;100143.55;1796038;80;21458;-61
2022/04/25 11:35:43;;;;;;;8.58;5.60;;;;;;;24.04;44.11;100136.83;1790837;79;21475;-60
2022/04/25 11:42:22;;;;;;;10.35;5.65;;;;;;;24.34;44.40;100131.99;1750142;81;21247;-61
2022/04/25 11:45:31;;;;;;;10.58;5.33;;;;;;;24.41;44.14;100123.62;1713153;81;21254;-62
2022/04/25 11:48:36;;;;;;;9.40;5.22;;;;;;;24.52;44.18;100126.76;1751769;81;21215;-62
2022/04/25 11:51:46;;;;;;;14.30;5.53;;;;;;;24.36;44.22;100125.55;1752523;81;21604;-61
2022/04/25 11:54:54;;;;;;;11.28;5.33;;;;;;;24.52;44.53;100123.11;1775876;79;21234;-61
2022/04/25 11:57:59;;;;;;;8.33;4.45;;;;;;;24.42;43.00;100118.30;1789126;79;21200;-61
2022/04/25 12:01:09;;;;;;;11.18;5.10;;;;;;;24.35;43.09;100109.88;1759769;80;21153;-62
2022/04/25 12:04:27;;;;;;;8.78;5.47;;;;;;;24.57;43.39;100116.14;1748671;81;21655;-62
2022/04/25 12:07:35;;;;;;;10.32;4.95;;;;;;;24.71;43.50;100118.73;1722015;81;21675;-61
2022/04/25 12:17:52;;;;;;;9.65;4.90;;;;;;;24.51;43.29;100094.84;1750276;81;21196;-60
2022/04/25 12:21:11;;;;;;;8.15;4.83;;;;;;;24.62;43.01;100087.63;1754071;81;21168;-62
2022/04/25 12:24:25;;;;;;;10.53;5.10;;;;;;;24.82;43.14;100084.05;1731890;81;21176;-62
2022/04/25 12:27:36;;;;;;;7.90;4.62;;;;;;;24.82;42.12;100084.91;1732802;82;21212;-63
2022/04/25 12:31:06;;;;;;;7.35;3.85;;;;;;;24.81;42.14;100080.44;1748841;81;21153;-61
2022/04/25 12:34:14;;;;;;;6.22;3.90;;;;;;;24.95;41.45;100073.73;1732835;82;21233;-63
2022/04/25 12:37:24;;;;;;;6.90;3.80;;;;;;;24.92;40.76;100073.73;1762902;81;21173;-62
2022/04/25 12:41:04;;;;;;;10.30;5.03;;;;;;;24.66;40.67;100064.97;1732875;82;21193;-61
2022/04/25 12:44:22;;;;;;;6.87;3.98;;;;;;;24.62;41.42;100070.82;1756030;80;21796;-60
2022/04/25 12:47:30;;;;;;;8.88;4.35;;;;;;;24.78;40.79;100064.16;1761746;81;21240;-61
2022/04/25 12:50:52;;;;;;;9.48;4.92;;;;;;;24.92;40.60;100065.88;1761943;79;21283;-60
2022/04/25 12:54:01;;;;;;;11.00;4.83;;;;;;;24.86;40.65;100055.80;1757823;81;21205;-62
2022/04/25 12:57:29;;;;;;;8.70;4.45;;;;;;;24.70;40.94;100054.92;1722803;81;21201;-61
2022/04/25 13:00:50;;;;;;;6.65;3.98;;;;;;;24.74;40.76;100054.64;1756229;81;21740;-60
2022/04/25 13:04:19;;;;;;;9.15;4.17;;;;;;;24.94;40.76;100051.88;1729476;82;21213;-59
2022/04/25 13:07:35;;;;;;;6.42;3.83;;;;;;;24.95;40.42;100049.92;1726622;82;21812;-62
2022/04/25 13:10:43;;;;;;;8.00;4.25;;;;;;;24.66;40.28;100043.98;1723252;83;21189;-60
2022/04/25 13:13:54;;;;;;;7.45;3.90;;;;;;;24.58;40.55;100038.03;1675105;85;21306;-58
2022/04/25 13:17:01;;;;;;;7.95;3.98;;;;;;;24.42;40.21;100037.14;1712494;82;21713;-59
2022/04/25 13:20:07;;;;;;;5.33;3.37;;;;;;;24.27;40.47;100037.09;1741484;81;21685;-58
2022/04/25 13:23:15;;;;;;;6.40;3.80;;;;;;;24.37;41.17;100020.33;1749287;81;21196;-58
2022/04/25 13:26:24;;;;;;;7.10;3.83;;;;;;;24.56;41.25;100034.69;1726689;82;21754;-60
2022/04/25 13:29:34;;;;;;;7.28;3.70;;;;;;;24.62;40.39;100033.58;1726578;83;21198;-58
2022/04/25 13:32:43;;;;;;;6.67;3.98;;;;;;;24.64;40.28;100020.97;1729102;82;21531;-59
2022/04/25 13:35:49;;;;;;;8.78;4.30;;;;;;;24.81;40.49;100023.02;1715464;82;21288;-56
2022/04/25 13:38:57;;;;;;;8.30;5.70;;;;;;;24.82;39.89;100018.24;1683016;84;21224;-59
2022/04/25 13:42:10;;;;;;;8.10;4.15;;;;;;;24.68;39.81;100018.50;1698131;84;21217;-59
2022/04/25 13:45:38;;;;;;;8.28;3.92;;;;;;;24.73;40.20;100012.92;1714644;82;21229;-58
2022/04/25 13:48:48;;;;;;;6.58;3.42;;;;;;;24.99;39.54;100003.41;1710315;82;21246;-59
2022/04/25 13:51:56;;;;;;;5.60;3.35;;;;;;;24.89;39.44;100009.84;1723759;82;21161;-58
2022/04/25 13:55:02;;;;;;;6.72;3.40;;;;;;;24.82;39.83;99994.44;1711125;82;21781;-59
2022/04/25 13:58:11;;;;;;;7.50;3.27;;;;;;;24.68;39.46;99991.36;1714727;83;21220;-59
2022/04/25 14:01:17;;;;;;;6.83;3.08;;;;;;;24.66;39.44;99992.19;1687026;82;21260;-57
2022/04/25 14:04:25;;;;;;;7.42;2.98;;;;;;;24.96;39.67;99989.42;1770956;79;21180;-50
2022/04/25 14:07:34;;;;;;;12.28;5.90;;;;;;;25.16;38.95;99987.20;1785440;80;21561;-54
2022/04/25 14:10:41;;;;;;;8.98;3.85;;;;;;;25.01;39.05;99981.02;1784505;80;21262;-60
2022/04/25 14:13:47;;;;;;;7.75;3.52;;;;;;;24.95;38.81;99984.09;1789186;79;21475;-61
2022/04/25 14:16:53;;;;;;;10.55;4.85;;;;;;;24.75;39.49;99975.69;1763804;81;21232;-60
2022/04/25 14:19:59;;;;;;;6.30;3.25;;;;;;;24.67;39.22;99988.25;1758613;79;21597;-60
2022/04/25 14:23:09;;;;;;;9.35;3.67;;;;;;;24.58;38.84;99980.09;1796146;79;21165;-61
2022/04/25 14:26:14;;;;;;;6.67;3.37;;;;;;;24.24;39.39;99980.84;1789896;80;21248;-59
2022/04/25 14:29:22;;;;;;;12.03;6.47;;;;;;;23.96;40.25;99984.88;1756996;80;21220;-60
2022/04/25 14:32:29;;;;;;;7.70;3.60;;;;;;;23.57;41.03;99987.75;1778038;80;21180;-60
2022/04/25 14:35:35;;;;;;;11.75;3.98;;;;;;;23.43;41.58;99991.59;1778433;80;21693;-59
2022/04/25 14:38:42;;;;;;;8.80;3.92;;;;;;;23.31;42.01;99990.92;1779363;80;21216;-59
2022/04/25 14:41:49;;;;;;;9.33;3.70;;;;;;;23.08;42.37;99987.63;1779343;80;21192;-59
2022/04/25 14:44:58;;;;;;;11.63;5.03;;;;;;;23.03;42.74;99979.21;1779063;80;21191;-59
2022/04/25 14:48:04;;;;;;;10.78;4.40;;;;;;;23.06;42.37;99980.92;1779519;78;21176;-60
2022/04/25 14:54:35;;;;;;;6.30;3.95;;;;;;;23.22;42.52;99976.30;1780597;79;21730;-60
2022/04/25 14:57:43;;;;;;;6.90;3.83;;;;;;;23.11;42.01;99974.53;1788468;79;21746;-61
2022/04/25 15:00:54;;;;;;;7.33;3.10;;;;;;;22.97;42.35;99971.91;1789508;80;21733;-60
2022/04/25 15:04:05;;;;;;;7.90;4.22;;;;;;;22.89;42.54;99971.84;1789392;79;21228;-60
2022/04/25 15:07:11;;;;;;;7.22;3.58;;;;;;;22.97;43.08;99970.51;1790397;79;21200;-61